createdAt,value
2022-11-10T00:00:56.903Z,1.80
2022-11-10T00:03:49.313Z,1.40
2022-11-10T00:06:35.809Z,1.95
2022-11-10T00:09:22.428Z,1.67
2022-11-10T00:12:08.908Z,1.85
2022-11-10T00:15:13.869Z,2.00
2022-11-10T00:18:03.072Z,2.10
2022-11-10T00:20:49.475Z,2.33
2022-11-10T00:23:36.041Z,1.83
2022-11-10T00:26:23.194Z,1.83
2022-11-10T00:29:09.493Z,2.33
2022-11-10T00:32:05.045Z,2.10
2022-11-10T00:34:51.585Z,2.03
2022-11-10T00:37:38.298Z,2.40
2022-11-10T00:40:24.791Z,2.58
2022-11-10T00:43:11.304Z,1.98
2022-11-10T00:45:58.185Z,2.47
2022-11-10T00:48:44.417Z,2.08
2022-11-10T00:51:31.314Z,2.10
2022-11-10T00:54:17.785Z,2.90
2022-11-10T00:57:04.641Z,2.08
2022-11-10T00:59:51.269Z,2.47
2022-11-10T01:02:37.938Z,2.63
2022-11-10T01:05:24.561Z,2.50
2022-11-10T01:08:11.348Z,2.47
2022-11-10T01:11:13.205Z,2.63
2022-11-10T01:14:00.023Z,2.25
2022-11-10T01:16:46.655Z,2.80
2022-11-10T01:19:33.505Z,2.25
2022-11-10T01:22:20.059Z,1.90
2022-11-10T01:25:07.137Z,2.65
2022-11-10T01:27:53.644Z,1.95
2022-11-10T01:30:40.351Z,2.70
2022-11-10T01:33:27.321Z,2.30
2022-11-10T01:36:14.018Z,2.33
2022-11-10T01:39:01.590Z,2.15
2022-11-10T01:41:48.057Z,2.22
2022-11-10T01:44:35.973Z,2.25
2022-11-10T01:47:22.611Z,1.98
2022-11-10T01:50:09.594Z,2.35
2022-11-10T01:52:57.992Z,3.50
2022-11-10T01:55:46.856Z,2.25
2022-11-10T01:58:40.141Z,2.10
2022-11-10T02:01:35.116Z,2.88
2022-11-10T02:04:21.799Z,2.55
2022-11-10T02:07:08.972Z,2.08
2022-11-10T02:09:55.758Z,2.25
2022-11-10T02:12:42.230Z,2.22
2022-11-10T02:15:28.481Z,2.10
2022-11-10T02:18:15.071Z,2.42
2022-11-10T02:21:08.504Z,2.55
2022-11-10T02:23:55.256Z,2.38
2022-11-10T02:26:53.029Z,2.40
2022-11-10T02:29:39.343Z,3.20
2022-11-10T02:32:26.134Z,2.60
2022-11-10T02:35:12.653Z,2.72
2022-11-10T02:37:59.258Z,3.38
2022-11-10T02:40:45.915Z,2.70
2022-11-10T02:43:32.343Z,2.88
2022-11-10T02:46:18.814Z,3.05
2022-11-10T02:49:05.462Z,3.00
2022-11-10T02:51:51.974Z,3.55
2022-11-10T02:54:38.438Z,2.70
2022-11-10T02:57:24.935Z,2.85
2022-11-10T03:00:12.085Z,3.10
2022-11-10T03:03:01.911Z,2.90
2022-11-10T03:05:48.536Z,3.38
2022-11-10T03:08:35.264Z,3.50
2022-11-10T03:11:46.797Z,2.58
2022-11-10T03:17:19.229Z,3.85
2022-11-10T03:20:06.366Z,3.50
2022-11-10T03:22:53.002Z,4.35
2022-11-10T03:25:39.643Z,3.75
2022-11-10T03:28:26.040Z,3.28
2022-11-10T03:31:12.815Z,3.78
2022-11-10T03:34:29.323Z,3.50
2022-11-10T03:37:18.124Z,3.10
2022-11-10T03:40:05.029Z,3.58
2022-11-10T03:42:51.331Z,3.83
2022-11-10T03:45:37.899Z,3.65
2022-11-10T03:48:24.336Z,3.38
2022-11-10T03:51:35.893Z,3.65
2022-11-10T03:54:22.812Z,4.20
2022-11-10T03:57:09.254Z,3.70
2022-11-10T03:59:55.691Z,3.90
2022-11-10T04:02:42.448Z,4.65
2022-11-10T04:05:47.332Z,3.40
2022-11-10T04:08:52.303Z,3.55
2022-11-10T04:11:57.240Z,4.30
2022-11-10T04:15:18.874Z,3.85
2022-11-10T04:18:34.623Z,4.03
2022-11-10T04:21:20.998Z,3.83
2022-11-10T04:24:08.952Z,4.28
2022-11-10T04:26:55.623Z,3.97
2022-11-10T04:29:42.223Z,4.47
2022-11-10T04:32:28.634Z,3.75
2022-11-10T04:35:15.442Z,4.22
2022-11-10T04:38:02.046Z,4.30
2022-11-10T04:40:48.426Z,3.83
2022-11-10T04:43:34.887Z,4.00
2022-11-10T04:46:27.203Z,4.50
2022-11-10T04:49:13.670Z,4.78
2022-11-10T04:52:05.892Z,3.70
2022-11-10T04:54:52.620Z,4.05
2022-11-10T04:57:39.043Z,4.32
2022-11-10T05:00:25.841Z,4.32
2022-11-10T05:03:12.919Z,4.30
2022-11-10T05:06:25.070Z,3.65
2022-11-10T05:09:11.416Z,3.65
2022-11-10T05:11:57.874Z,4.38
2022-11-10T05:14:44.376Z,3.83
2022-11-10T05:17:30.864Z,4.05
2022-11-10T05:20:23.413Z,4.38
2022-11-10T05:23:30.971Z,4.15
2022-11-10T05:26:19.582Z,5.07
2022-11-10T05:29:06.123Z,3.63
2022-11-10T05:31:52.679Z,4.57
2022-11-10T05:34:39.293Z,4.28
2022-11-10T05:37:25.896Z,3.63
2022-11-10T05:40:12.769Z,4.22
2022-11-10T05:42:59.127Z,4.57
2022-11-10T05:45:45.628Z,4.05
2022-11-10T05:48:40.828Z,4.80
2022-11-10T05:51:27.536Z,4.43
2022-11-10T05:54:23.044Z,4.30
2022-11-10T05:57:09.607Z,3.97
2022-11-10T06:00:06.179Z,3.90
2022-11-10T06:03:11.788Z,3.53
2022-11-10T06:05:58.142Z,5.30
2022-11-10T06:08:44.746Z,4.93
2022-11-10T06:11:31.453Z,4.68
2022-11-10T06:14:17.965Z,5.20
2022-11-10T06:17:04.492Z,4.80
2022-11-10T06:19:51.311Z,4.03
2022-11-10T06:22:37.549Z,4.85
2022-11-10T06:25:26.858Z,4.68
2022-11-10T06:28:23.173Z,5.22
2022-11-10T06:31:09.951Z,4.45
2022-11-10T06:33:56.585Z,4.68
2022-11-10T06:36:47.156Z,4.03
2022-11-10T06:39:33.280Z,3.50
2022-11-10T06:42:19.911Z,4.50
2022-11-10T06:45:06.908Z,3.75
2022-11-10T06:48:05.881Z,4.80
2022-11-10T06:50:52.575Z,4.55
2022-11-10T06:53:39.470Z,4.70
2022-11-10T06:56:26.031Z,4.45
2022-11-10T06:59:37.584Z,4.20
2022-11-10T07:02:23.531Z,5.30
2022-11-10T07:05:10.356Z,4.68
2022-11-10T07:07:56.824Z,4.60
2022-11-10T07:10:55.175Z,4.25
2022-11-10T07:13:42.417Z,4.60
2022-11-10T07:16:28.992Z,4.28
2022-11-10T07:19:15.671Z,4.68
2022-11-10T07:22:08.034Z,4.38
2022-11-10T07:24:59.805Z,4.45
2022-11-10T07:28:11.647Z,3.80
2022-11-10T07:31:01.029Z,4.82
2022-11-10T07:33:51.902Z,4.70
2022-11-10T07:36:41.167Z,3.78
2022-11-10T07:39:30.975Z,4.40
2022-11-10T07:42:18.247Z,4.28
2022-11-10T07:45:29.476Z,4.20
2022-11-10T07:48:27.255Z,4.15
2022-11-10T07:51:38.593Z,4.70
2022-11-10T07:54:25.301Z,4.13
2022-11-10T07:57:12.385Z,4.93
2022-11-10T07:59:59.060Z,4.97
2022-11-10T08:02:45.745Z,4.93
2022-11-10T08:05:42.032Z,4.97
2022-11-10T08:08:29.651Z,4.68
2022-11-10T08:11:18.279Z,4.07
2022-11-10T08:14:04.708Z,4.20
2022-11-10T08:16:51.574Z,3.65
2022-11-10T08:19:46.807Z,4.80
2022-11-10T08:22:33.246Z,3.67
2022-11-10T08:25:19.808Z,4.07
2022-11-10T08:28:11.834Z,3.83
2022-11-10T08:31:02.804Z,3.20
2022-11-10T08:33:58.690Z,4.00
2022-11-10T08:36:45.285Z,3.67
2022-11-10T08:39:38.955Z,3.38
2022-11-10T08:42:25.926Z,3.60
2022-11-10T08:45:13.049Z,4.20
2022-11-10T08:48:20.407Z,4.28
2022-11-10T08:51:10.034Z,3.85
2022-11-10T08:53:56.535Z,4.00
2022-11-10T08:56:43.155Z,3.80
2022-11-10T08:59:29.651Z,4.22
2022-11-10T09:02:16.001Z,3.60
2022-11-10T09:05:02.679Z,3.50
2022-11-10T09:07:50.569Z,3.50
2022-11-10T09:10:46.940Z,3.70
2022-11-10T09:13:33.907Z,3.60
2022-11-10T09:16:20.576Z,3.92
2022-11-10T09:19:07.035Z,3.30
2022-11-10T09:21:53.843Z,3.45
2022-11-10T09:24:42.620Z,3.25
2022-11-10T09:27:30.417Z,3.50
2022-11-10T09:30:18.097Z,3.50
2022-11-10T09:36:08.694Z,3.78
2022-11-10T09:38:55.234Z,3.15
2022-11-10T09:42:25.733Z,3.10
2022-11-10T09:45:40.662Z,3.28
2022-11-10T09:48:48.459Z,3.15
2022-11-10T09:51:46.973Z,3.05
2022-11-10T09:54:59.610Z,3.10
2022-11-10T09:57:49.105Z,2.83
2022-11-10T10:00:36.014Z,3.40
2022-11-10T10:03:28.825Z,3.10
2022-11-10T10:06:20.140Z,3.35
2022-11-10T10:09:59.136Z,3.22
2022-11-10T10:13:30.870Z,3.13
2022-11-10T10:20:05.317Z,2.78
2022-11-10T10:23:46.764Z,2.97
2022-11-10T10:26:41.664Z,2.40
2022-11-10T10:29:40.564Z,2.30
2022-11-10T10:32:27.679Z,2.40
2022-11-10T10:35:16.418Z,2.38
2022-11-10T10:38:04.902Z,2.33
2022-11-10T10:40:53.638Z,2.83
2022-11-10T10:43:44.988Z,2.13
2022-11-10T10:49:48.286Z,2.08
2022-11-10T10:53:15.730Z,2.30
2022-11-10T10:56:21.475Z,2.08
2022-11-10T10:59:22.377Z,2.08
2022-11-10T11:02:40.685Z,2.10
2022-11-10T11:05:29.308Z,2.50
2022-11-10T11:08:19.252Z,2.83
2022-11-10T11:11:11.580Z,2.08
2022-11-10T11:14:23.456Z,2.03
2022-11-10T11:17:24.318Z,2.50
2022-11-10T11:20:37.779Z,2.00
2022-11-10T11:24:24.165Z,2.28
2022-11-10T11:27:28.570Z,2.20
2022-11-10T11:31:05.044Z,2.25
2022-11-10T11:34:48.427Z,2.05
2022-11-10T11:38:22.456Z,2.83
2022-11-10T11:41:24.050Z,1.83
2022-11-10T11:44:12.922Z,1.88
2022-11-10T11:47:37.514Z,2.25
2022-11-10T11:50:43.099Z,2.30
2022-11-10T11:54:01.223Z,1.80
2022-11-10T11:57:50.927Z,2.00
2022-11-10T12:01:23.484Z,1.70
2022-11-10T12:04:23.450Z,2.13
2022-11-10T12:07:40.247Z,1.92
2022-11-10T12:10:45.433Z,1.58
2022-11-10T12:13:56.036Z,2.03
2022-11-10T12:17:13.454Z,1.63
2022-11-10T12:20:35.335Z,1.58
2022-11-10T12:24:15.191Z,1.52
2022-11-10T12:27:34.631Z,1.45
2022-11-10T12:30:23.125Z,1.75
2022-11-10T12:34:30.402Z,1.73
2022-11-10T12:37:32.421Z,1.60
2022-11-10T12:40:23.149Z,1.30
2022-11-10T12:43:58.320Z,1.70
2022-11-10T12:46:51.808Z,1.48
2022-11-10T12:49:43.058Z,1.92
2022-11-10T12:52:47.880Z,1.65
2022-11-10T12:55:44.795Z,1.55
2022-11-10T12:58:31.159Z,1.77
2022-11-10T13:01:20.188Z,1.40
2022-11-10T13:04:06.820Z,1.70
2022-11-10T13:06:59.579Z,1.35
2022-11-10T13:09:47.217Z,1.73
2022-11-10T13:12:33.352Z,2.45
2022-11-10T13:15:57.887Z,1.77
2022-11-10T13:18:44.347Z,1.42
2022-11-10T13:21:56.265Z,1.77
2022-11-10T13:24:44.229Z,1.63
2022-11-10T13:27:43.075Z,1.48
2022-11-10T13:30:43.673Z,1.40
2022-11-10T13:33:34.979Z,1.67
2022-11-10T13:36:43.475Z,1.83
2022-11-10T13:39:33.505Z,1.60
2022-11-10T13:42:25.088Z,1.50
2022-11-10T13:45:47.239Z,1.58
2022-11-10T13:48:55.821Z,1.88
2022-11-10T13:52:09.264Z,1.60
2022-11-10T13:55:20.481Z,1.67
2022-11-10T13:58:32.520Z,1.10
2022-11-10T14:01:18.886Z,1.40
2022-11-10T14:04:06.511Z,1.30
2022-11-10T14:06:55.980Z,2.00
2022-11-10T14:09:51.799Z,1.23
2022-11-10T14:12:51.509Z,1.83
2022-11-10T14:15:47.555Z,1.25
2022-11-10T14:18:42.029Z,1.33
2022-11-10T14:21:43.389Z,1.65
2022-11-10T14:24:38.132Z,1.65
2022-11-10T14:27:28.865Z,1.70
2022-11-10T14:30:21.748Z,1.58
2022-11-10T14:33:13.681Z,1.40
2022-11-10T14:36:10.305Z,2.33
2022-11-10T14:38:58.091Z,1.70
2022-11-10T14:41:49.455Z,1.52
2022-11-10T14:44:36.307Z,1.50
2022-11-10T14:48:00.390Z,0.98
2022-11-10T14:50:47.353Z,1.27
2022-11-10T14:53:46.159Z,1.45
2022-11-10T14:56:57.304Z,1.40
2022-11-10T15:02:29.980Z,1.30
2022-11-10T15:05:16.509Z,1.42
2022-11-10T15:08:04.261Z,1.63
2022-11-10T15:10:56.301Z,2.00
2022-11-10T15:13:42.581Z,1.67
2022-11-10T15:16:36.555Z,1.75
2022-11-10T15:19:32.812Z,1.63
2022-11-10T15:22:19.386Z,1.48
2022-11-10T15:25:28.762Z,1.60
2022-11-10T15:28:23.601Z,1.27
2022-11-10T15:31:36.608Z,1.50
2022-11-10T15:34:43.478Z,1.20
2022-11-10T15:37:31.496Z,1.10
2022-11-10T15:40:51.522Z,1.50
2022-11-10T15:43:38.147Z,1.38
2022-11-10T15:46:27.476Z,1.40
2022-11-10T15:49:24.200Z,1.10
2022-11-10T15:52:25.017Z,1.10
2022-11-10T15:55:24.905Z,1.20
2022-11-10T15:58:20.502Z,1.02
2022-11-10T16:01:17.063Z,1.35
2022-11-10T16:04:03.496Z,1.45
2022-11-10T16:07:16.094Z,1.80
2022-11-10T16:10:03.270Z,1.38
2022-11-10T16:12:49.976Z,1.75
2022-11-10T16:15:55.615Z,1.40
2022-11-10T16:19:25.789Z,1.77
2022-11-10T16:22:15.659Z,1.42
2022-11-10T16:25:02.351Z,0.90
2022-11-10T16:27:49.485Z,1.38
2022-11-10T16:31:01.403Z,1.33
2022-11-10T16:33:48.149Z,1.02
2022-11-10T16:37:00.691Z,1.20
2022-11-10T16:39:50.175Z,1.63
2022-11-10T16:42:36.639Z,1.60
2022-11-10T16:45:31.313Z,1.20
2022-11-10T16:48:27.319Z,1.30
2022-11-10T16:51:14.467Z,1.42
2022-11-10T16:54:00.934Z,1.25
2022-11-10T16:56:48.915Z,1.40
2022-11-10T16:59:35.426Z,1.25
2022-11-10T17:02:34.716Z,1.40
2022-11-10T17:05:21.791Z,2.45
2022-11-10T17:08:24.255Z,1.30
2022-11-10T17:11:12.971Z,1.52
2022-11-10T17:13:59.730Z,1.88
2022-11-10T17:17:16.682Z,1.92
2022-11-10T17:20:05.674Z,1.67
2022-11-10T17:22:52.971Z,1.95
2022-11-10T17:25:43.400Z,1.48
2022-11-10T17:28:30.006Z,1.33
2022-11-10T17:31:19.235Z,1.15
2022-11-10T17:34:05.741Z,1.30
2022-11-10T17:36:55.174Z,1.10
2022-11-10T17:39:42.251Z,1.38
2022-11-10T17:42:30.852Z,1.63
2022-11-10T17:45:26.587Z,1.63
2022-11-10T17:48:13.063Z,1.55
2022-11-10T17:51:02.883Z,1.40
2022-11-10T17:53:50.671Z,1.30
2022-11-10T17:56:37.157Z,1.58
2022-11-10T17:59:23.794Z,1.55
2022-11-10T18:02:11.488Z,1.42
2022-11-10T18:04:57.490Z,1.90
2022-11-10T18:08:15.177Z,2.08
2022-11-10T18:11:02.035Z,1.40
2022-11-10T18:13:49.975Z,1.80
2022-11-10T18:16:41.277Z,2.20
2022-11-10T18:22:13.498Z,1.60
2022-11-10T18:24:59.934Z,1.58
2022-11-10T18:27:57.647Z,1.30
2022-11-10T18:30:44.699Z,1.42
2022-11-10T18:33:31.202Z,1.98
2022-11-10T18:36:17.886Z,1.85
2022-11-10T18:39:05.575Z,1.25
2022-11-10T18:42:17.016Z,1.83
2022-11-10T18:45:03.425Z,1.52
2022-11-10T18:47:50.223Z,1.52
2022-11-10T18:50:38.382Z,1.52
2022-11-10T18:53:26.806Z,1.20
2022-11-10T18:56:14.294Z,1.48
2022-11-10T18:59:02.134Z,1.35
2022-11-10T19:01:49.558Z,1.30
2022-11-10T19:04:41.691Z,1.38
2022-11-10T19:07:34.412Z,1.30
2022-11-10T19:10:21.238Z,1.63
2022-11-10T19:13:07.626Z,1.48
2022-11-10T19:15:55.867Z,1.30
2022-11-10T19:18:45.104Z,1.35
2022-11-10T19:21:57.287Z,1.58
2022-11-10T19:25:07.200Z,1.45
2022-11-10T19:27:54.131Z,1.58
2022-11-10T19:30:41.049Z,1.42
2022-11-10T19:33:30.513Z,1.27
2022-11-10T19:36:21.653Z,1.45
2022-11-10T19:39:11.700Z,1.48
2022-11-10T19:42:20.472Z,1.52
2022-11-10T19:45:07.716Z,1.60
2022-11-10T19:47:55.186Z,1.63
2022-11-10T19:50:46.550Z,1.50
2022-11-10T19:53:35.838Z,1.92
2022-11-10T19:56:29.042Z,1.67
2022-11-10T19:59:22.501Z,1.50
2022-11-10T20:02:13.346Z,1.52
2022-11-10T20:05:16.559Z,1.50
2022-11-10T20:08:15.490Z,1.23
2022-11-10T20:11:09.223Z,1.63
2022-11-10T20:14:03.717Z,1.42
2022-11-10T20:16:50.252Z,1.40
2022-11-10T20:20:02.140Z,1.58
2022-11-10T20:22:53.428Z,1.50
2022-11-10T20:26:16.860Z,1.52
2022-11-10T20:29:06.475Z,1.25
2022-11-10T20:32:43.254Z,1.63
2022-11-10T20:39:07.959Z,1.50
2022-11-10T20:41:54.451Z,1.70
2022-11-10T20:44:43.910Z,2.38
2022-11-10T20:47:41.763Z,1.58
2022-11-10T20:50:28.860Z,1.40
2022-11-10T20:53:42.426Z,1.90
2022-11-10T20:56:30.175Z,1.70
2022-11-10T20:59:16.719Z,1.70
2022-11-10T21:02:05.083Z,1.60
2022-11-10T21:04:51.419Z,1.58
2022-11-10T21:07:45.038Z,1.73
2022-11-10T21:10:31.664Z,1.42
2022-11-10T21:13:21.143Z,1.55
2022-11-10T21:16:08.164Z,1.40
2022-11-10T21:19:00.682Z,1.77
2022-11-10T21:21:50.967Z,1.52
2022-11-10T21:24:47.998Z,1.80
2022-11-10T21:27:34.641Z,1.75
2022-11-10T21:30:43.135Z,1.95
2022-11-10T21:33:29.815Z,1.80
2022-11-10T21:36:42.677Z,1.85
2022-11-10T21:39:31.130Z,2.17
2022-11-10T21:42:20.753Z,1.80
2022-11-10T21:45:09.376Z,1.58
2022-11-10T21:48:03.380Z,2.67
2022-11-10T21:50:49.718Z,2.00
2022-11-10T21:53:38.993Z,1.95
2022-11-10T21:56:25.654Z,1.83
2022-11-10T21:59:36.827Z,1.75
2022-11-10T22:02:26.263Z,1.90
2022-11-10T22:05:12.502Z,1.75
2022-11-10T22:07:58.825Z,1.85
2022-11-10T22:11:04.291Z,1.98
2022-11-10T22:14:09.296Z,1.65
2022-11-10T22:17:22.540Z,2.00
2022-11-10T22:20:09.339Z,1.83
2022-11-10T22:22:55.682Z,1.85
2022-11-10T22:25:42.541Z,1.77
2022-11-10T22:28:28.837Z,1.65
2022-11-10T22:31:15.487Z,1.80
2022-11-10T22:34:02.248Z,1.63
2022-11-10T22:36:52.418Z,2.22
2022-11-10T22:39:57.465Z,1.92
2022-11-10T22:43:03.289Z,2.20
2022-11-10T22:46:03.894Z,2.15
2022-11-10T22:48:50.323Z,1.90
2022-11-10T22:51:38.493Z,1.83
2022-11-10T22:54:24.778Z,1.90
2022-11-10T22:57:11.355Z,2.15
2022-11-10T22:59:57.773Z,1.63
2022-11-10T23:02:44.655Z,2.05
2022-11-10T23:05:37.311Z,1.90
2022-11-10T23:08:23.723Z,1.83
2022-11-10T23:11:20.116Z,1.83
2022-11-10T23:14:06.548Z,2.38
2022-11-10T23:16:53.003Z,2.20
2022-11-10T23:19:39.543Z,2.50
2022-11-10T23:22:26.239Z,2.00
2022-11-10T23:25:12.713Z,1.80
2022-11-10T23:27:59.167Z,1.85
2022-11-10T23:30:45.917Z,2.67
2022-11-10T23:33:39.884Z,2.20
2022-11-10T23:36:27.438Z,2.13
2022-11-10T23:39:14.014Z,2.00
2022-11-10T23:42:00.434Z,2.00
2022-11-10T23:44:46.988Z,2.10
2022-11-10T23:47:33.423Z,2.08
2022-11-10T23:50:20.019Z,2.72
2022-11-10T23:53:06.560Z,2.50
2022-11-10T23:56:05.585Z,1.98
2022-11-10T23:58:51.883Z,2.85
